CYDO2: Sardis Lake

Data processed at Sat Aug 18 2018 23:10


All information presented herein is the property of the government of the United States of America and may be revised or deleted at any time without prior notice.
Dissemination of this information without the expressed written consent of the Public Affairs Office, Tulsa District U.S. Army Corps of Engineers is strictly prohibited.
These data are gathered electronically and, as presented, have not undergone any form of quality control. These data are not guaranteed to be valid or correct.
Go to home page.
Go to station list.

Downstream station:


Previous Day
Next Day
Current Day
    
SHEF ID:       CYDO2     Sardis Lake
STATION TYPE:  RESERVOIR
Normal Pool:  Bottom =   542.00, Top =   599.00

               PRECIP PRECIP(A) ELEVATION   STORAGE    INFLOW   RELEASE  AIR-TEMP  WIND-DIRWIND-SPEED REL-HUMID SOLAR-RAD   VOLTAGE  BAT-LOAD
                   in        in        ft     ac-ft       cfs       cfs         F       deg       mph         %      W/m2      volt      volt
              Ccp-Rev   Ccp-Rev   Ccp-Rev   Ccp-Rev  Regi-Rev  Regi-Rev   Ccp-Rev   Ccp-Rev   Ccp-Rev   Ccp-Rev   Ccp-Rev   Ccp-Rev   Ccp-Rev
(US/Central)
08/18 00:00      0.00      ----    599.78    284837        19      1195     79.32     74.40      5.00     80.70      0.00     12.87     12.65
08/18 01:00      0.00      ----    599.79    284973        29      1196     76.35    153.20      4.60     83.37      0.00     12.85     12.65
08/18 02:00      0.00      ----    599.77    284700        75      1195     74.52    169.80      2.30     87.34      0.00     12.84     12.57
08/18 03:00      0.00      ----    599.76    284564        85      1195     73.78    170.10      3.80     90.50      0.00     12.82     12.57
08/18 04:00      0.00      ----    599.76    284564        85      1195     74.37    170.70      1.80     86.26      0.00     12.81     12.57
08/18 05:00      0.00      ----    599.75    284427       117      1195     73.90    178.70      2.40     87.88      0.00     12.80     12.57
08/18 06:00      0.00      ----    599.74    284291       149      1195     72.86    157.50      3.90     91.29      0.00     12.79     12.57
08/18 07:00      0.00      ----    599.74    284291       103      1195     72.09    164.90      4.10     94.59      0.00     12.79     12.57
08/18 08:00      0.00      ----    599.73    284154       102      1194     72.63    111.70      4.00     92.68     69.50     12.91     12.57
08/18 09:00      0.00      ----    599.73    284154       100      1194     75.38    121.60      5.10     84.90    245.70     13.31     12.73
08/18 10:00      0.00      ----    599.72    284018        60      1194     77.79     59.10      6.10     79.34    409.40     13.63     13.05
08/18 11:00      0.00      ----    599.71    283881        20      1194     80.51      3.00      4.50     75.18    632.00     13.85     13.21
08/18 12:00      0.00      ----    599.70    283745        22      1194     82.18    338.30      3.90     71.35    812.60     14.24     13.84
08/18 13:00      0.00      ----    599.70    283745        44      1194     84.70    334.30      3.10     63.62    891.60     13.66     14.00
08/18 14:00      0.00      ----    599.69    283608        36      1194     86.97    330.50      3.10     60.64    903.90     13.85     13.84
08/18 15:00      0.00      ----    599.68    283472        36      1194     88.86    326.40      2.80     59.31    861.90     14.03     12.97
08/18 16:00      0.00      ----    599.67    283335        35      1194     90.43    337.80      2.90     57.02    751.70     14.20     13.05
08/18 17:00      0.00      ----    599.67    283335        34      1194     92.01    342.90      2.50     53.10    610.10     13.69     12.89
08/18 18:00      0.00      ----    599.66    283199         3      1194     90.88      9.10      4.80     54.28    391.80     14.26     12.81
08/18 19:00      0.00      ----    599.65    283062         2      1194     89.82     19.30      6.60     56.33    158.20     13.02     12.81
08/18 20:00      0.00      ----    599.64    282926         1      1194     87.01     23.30      6.60     65.09      5.30     12.94     12.73
08/18 21:00      0.00      ----    599.63    282789         0      1193     82.83    205.30      3.10     72.16      0.00     12.92     12.65
08/18 22:00      0.00      ----    599.63    282789         0      1193     80.26    185.30      2.60     77.55      0.00     12.89     12.65
08/18 23:00      0.00      ----    599.62    282653      -901      -901     79.54    182.20      2.50     78.05      0.00     12.88     12.65